sensor_id;sensor_type;location;lat;lon;timestamp;pressure;altitude;pressure_sealevel;temperature;humidity
35655;BME280;21773;50.010;19.972;2024-03-02T00:03:02;98157.09;;;11.48;100.00
35655;BME280;21773;50.010;19.972;2024-03-02T00:06:06;98158.38;;;11.46;100.00
35655;BME280;21773;50.010;19.972;2024-03-02T00:09:10;98157.31;;;11.47;100.00
35655;BME280;21773;50.010;19.972;2024-03-02T00:12:15;98162.81;;;11.52;100.00
35655;BME280;21773;50.010;19.972;2024-03-02T00:15:35;98151.50;;;11.55;100.00
35655;BME280;21773;50.010;19.972;2024-03-02T00:18:44;98162.81;;;11.52;100.00
35655;BME280;21773;50.010;19.972;2024-03-02T00:21:47;98169.09;;;11.57;100.00
35655;BME280;21773;50.010;19.972;2024-03-02T00:24:50;98168.84;;;11.59;100.00
35655;BME280;21773;50.010;19.972;2024-03-02T00:27:53;98169.66;;;11.59;100.00
35655;BME280;21773;50.010;19.972;2024-03-02T00:30:59;98152.75;;;11.47;100.00
35655;BME280;21773;50.010;19.972;2024-03-02T00:34:05;98150.59;;;11.49;100.00
35655;BME280;21773;50.010;19.972;2024-03-02T00:37:09;98150.94;;;11.53;100.00
35655;BME280;21773;50.010;19.972;2024-03-02T00:40:13;98166.38;;;11.41;100.00
35655;BME280;21773;50.010;19.972;2024-03-02T00:43:44;98160.66;;;11.37;100.00
35655;BME280;21773;50.010;19.972;2024-03-02T00:46:49;98160.34;;;11.34;100.00
35655;BME280;21773;50.010;19.972;2024-03-02T00:49:53;98150.19;;;11.41;100.00
35655;BME280;21773;50.010;19.972;2024-03-02T00:52:57;98149.47;;;11.45;100.00
35655;BME280;21773;50.010;19.972;2024-03-02T00:56:01;98146.84;;;11.50;100.00
35655;BME280;21773;50.010;19.972;2024-03-02T00:59:04;98146.59;;;11.52;100.00
35655;BME280;21773;50.010;19.972;2024-03-02T01:02:08;98145.47;;;11.48;100.00
35655;BME280;21773;50.010;19.972;2024-03-02T01:05:13;98144.06;;;11.45;100.00
35655;BME280;21773;50.010;19.972;2024-03-02T01:08:16;98139.25;;;11.47;100.00
35655;BME280;21773;50.010;19.972;2024-03-02T01:11:19;98139.16;;;11.42;100.00
35655;BME280;21773;50.010;19.972;2024-03-02T01:14:24;98133.38;;;11.34;100.00
35655;BME280;21773;50.010;19.972;2024-03-02T01:17:28;98124.59;;;11.26;100.00
35655;BME280;21773;50.010;19.972;2024-03-02T01:20:32;98124.59;;;11.26;100.00
35655;BME280;21773;50.010;19.972;2024-03-02T01:23:36;98132.75;;;11.15;100.00
35655;BME280;21773;50.010;19.972;2024-03-02T01:26:39;98122.88;;;11.20;100.00
35655;BME280;21773;50.010;19.972;2024-03-02T01:29:42;98127.44;;;11.20;100.00
35655;BME280;21773;50.010;19.972;2024-03-02T01:32:45;98113.78;;;11.10;100.00
35655;BME280;21773;50.010;19.972;2024-03-02T01:35:50;98105.38;;;11.06;100.00
35655;BME280;21773;50.010;19.972;2024-03-02T01:38:53;98120.00;;;11.10;100.00
35655;BME280;21773;50.010;19.972;2024-03-02T01:41:56;98076.56;;;10.95;100.00
35655;BME280;21773;50.010;19.972;2024-03-02T01:44:59;98104.94;;;11.14;100.00
35655;BME280;21773;50.010;19.972;2024-03-02T01:48:04;98104.81;;;11.04;100.00
35655;BME280;21773;50.010;19.972;2024-03-02T01:51:09;98093.34;;;10.97;100.00
35655;BME280;21773;50.010;19.972;2024-03-02T01:54:12;98095.81;;;10.99;100.00
35655;BME280;21773;50.010;19.972;2024-03-02T01:57:15;98096.38;;;11.01;100.00
35655;BME280;21773;50.010;19.972;2024-03-02T02:00:19;98076.31;;;10.80;100.00
35655;BME280;21773;50.010;19.972;2024-03-02T02:03:22;98100.38;;;10.98;100.00
35655;BME280;21773;50.010;19.972;2024-03-02T02:06:27;98112.09;;;11.04;100.00
35655;BME280;21773;50.010;19.972;2024-03-02T02:09:31;98104.00;;;11.04;100.00
35655;BME280;21773;50.010;19.972;2024-03-02T02:12:35;98107.78;;;10.91;100.00
35655;BME280;21773;50.010;19.972;2024-03-02T02:15:39;98108.28;;;10.88;100.00
35655;BME280;21773;50.010;19.972;2024-03-02T02:18:42;98102.03;;;10.99;100.00
35655;BME280;21773;50.010;19.972;2024-03-02T02:21:46;98106.34;;;11.00;100.00
35655;BME280;21773;50.010;19.972;2024-03-02T02:24:50;98110.13;;;10.99;100.00
35655;BME280;21773;50.010;19.972;2024-03-02T02:27:53;98113.13;;;11.03;100.00
35655;BME280;21773;50.010;19.972;2024-03-02T02:30:57;98111.41;;;10.97;100.00
35655;BME280;21773;50.010;19.972;2024-03-02T02:34:02;98108.13;;;10.95;100.00
35655;BME280;21773;50.010;19.972;2024-03-02T02:37:07;98106.06;;;10.85;100.00
35655;BME280;21773;50.010;19.972;2024-03-02T02:40:11;98101.06;;;10.77;100.00
35655;BME280;21773;50.010;19.972;2024-03-02T02:43:14;98097.56;;;10.76;100.00
35655;BME280;21773;50.010;19.972;2024-03-02T02:46:17;98095.69;;;10.77;100.00
35655;BME280;21773;50.010;19.972;2024-03-02T02:49:20;98083.50;;;10.74;100.00
35655;BME280;21773;50.010;19.972;2024-03-02T02:52:25;98086.63;;;10.83;100.00
35655;BME280;21773;50.010;19.972;2024-03-02T02:55:28;98082.78;;;10.79;100.00
35655;BME280;21773;50.010;19.972;2024-03-02T02:58:31;98087.69;;;10.82;100.00
35655;BME280;21773;50.010;19.972;2024-03-02T03:01:34;98091.44;;;10.81;100.00
35655;BME280;21773;50.010;19.972;2024-03-02T03:04:39;98088.63;;;10.59;100.00
35655;BME280;21773;50.010;19.972;2024-03-02T03:07:44;98096.41;;;10.72;100.00
35655;BME280;21773;50.010;19.972;2024-03-02T03:10:47;98091.94;;;10.78;100.00
35655;BME280;21773;50.010;19.972;2024-03-02T03:13:51;98107.13;;;10.84;100.00
35655;BME280;21773;50.010;19.972;2024-03-02T03:16:55;98112.88;;;10.88;100.00
35655;BME280;21773;50.010;19.972;2024-03-02T03:19:59;98107.13;;;10.84;100.00
35655;BME280;21773;50.010;19.972;2024-03-02T03:23:04;98107.28;;;10.77;100.00
35655;BME280;21773;50.010;19.972;2024-03-02T03:26:07;98104.34;;;10.79;100.00
35655;BME280;21773;50.010;19.972;2024-03-02T03:29:10;98102.38;;;10.74;100.00
35655;BME280;21773;50.010;19.972;2024-03-02T03:32:13;98097.22;;;10.73;100.00
35655;BME280;21773;50.010;19.972;2024-03-02T03:35:17;98097.53;;;10.60;100.00
35655;BME280;21773;50.010;19.972;2024-03-02T03:38:21;98093.38;;;10.69;100.00
35655;BME280;21773;50.010;19.972;2024-03-02T03:41:24;98086.53;;;10.78;100.00
35655;BME280;21773;50.010;19.972;2024-03-02T03:44:27;98074.94;;;10.77;100.00
35655;BME280;21773;50.010;19.972;2024-03-02T03:47:31;98086.03;;;10.81;100.00
35655;BME280;21773;50.010;19.972;2024-03-02T03:50:34;98080.09;;;10.79;100.00
35655;BME280;21773;50.010;19.972;2024-03-02T03:53:39;98085.13;;;10.75;100.00
35655;BME280;21773;50.010;19.972;2024-03-02T03:56:42;98089.03;;;10.68;100.00
35655;BME280;21773;50.010;19.972;2024-03-02T03:59:45;98088.31;;;10.72;100.00
35655;BME280;21773;50.010;19.972;2024-03-02T04:02:49;98089.44;;;10.60;100.00
35655;BME280;21773;50.010;19.972;2024-03-02T04:05:52;98078.31;;;10.56;100.00
35655;BME280;21773;50.010;19.972;2024-03-02T04:08:56;98085.25;;;10.52;100.00
35655;BME280;21773;50.010;19.972;2024-03-02T04:11:59;98081.16;;;10.50;100.00
35655;BME280;21773;50.010;19.972;2024-03-02T04:15:04;98081.28;;;10.43;100.00
35655;BME280;21773;50.010;19.972;2024-03-02T04:18:08;98083.50;;;10.46;100.00
35655;BME280;21773;50.010;19.972;2024-03-02T04:21:11;98088.09;;;10.46;100.00
35655;BME280;21773;50.010;19.972;2024-03-02T04:24:16;98087.19;;;10.40;100.00
35655;BME280;21773;50.010;19.972;2024-03-02T04:27:19;98093.28;;;10.35;100.00
35655;BME280;21773;50.010;19.972;2024-03-02T04:30:22;98093.28;;;10.35;100.00
35655;BME280;21773;50.010;19.972;2024-03-02T04:33:25;98098.91;;;10.34;100.00
35655;BME280;21773;50.010;19.972;2024-03-02T04:36:28;98090.09;;;10.38;100.00
35655;BME280;21773;50.010;19.972;2024-03-02T04:39:34;98095.59;;;10.43;100.00
35655;BME280;21773;50.010;19.972;2024-03-02T04:42:37;98086.69;;;10.43;100.00
35655;BME280;21773;50.010;19.972;2024-03-02T04:45:40;98084.94;;;10.37;100.00
35655;BME280;21773;50.010;19.972;2024-03-02T04:48:44;98084.63;;;10.33;100.00
35655;BME280;21773;50.010;19.972;2024-03-02T04:51:47;98072.69;;;10.29;100.00
35655;BME280;21773;50.010;19.972;2024-03-02T04:54:52;98070.00;;;10.29;100.00
35655;BME280;21773;50.010;19.972;2024-03-02T04:58:25;98082.97;;;10.32;100.00
35655;BME280;21773;50.010;19.972;2024-03-02T05:01:28;98090.59;;;10.35;100.00
35655;BME280;21773;50.010;19.972;2024-03-02T05:04:31;98089.41;;;10.31;100.00
35655;BME280;21773;50.010;19.972;2024-03-02T05:07:34;98097.16;;;10.28;100.00
35655;BME280;21773;50.010;19.972;2024-03-02T05:10:39;98096.00;;;10.24;100.00
35655;BME280;21773;50.010;19.972;2024-03-02T05:13:42;98078.69;;;10.08;100.00
35655;BME280;21773;50.010;19.972;2024-03-02T05:16:45;98099.53;;;10.24;100.00
35655;BME280;21773;50.010;19.972;2024-03-02T05:19:48;98114.84;;;10.12;100.00
35655;BME280;21773;50.010;19.972;2024-03-02T05:22:51;98111.25;;;10.07;100.00
35655;BME280;21773;50.010;19.972;2024-03-02T05:25:56;98116.53;;;10.02;100.00
35655;BME280;21773;50.010;19.972;2024-03-02T05:28:59;98119.91;;;10.09;100.00
35655;BME280;21773;50.010;19.972;2024-03-02T05:32:02;98122.84;;;10.19;100.00
35655;BME280;21773;50.010;19.972;2024-03-02T05:35:06;98127.84;;;10.27;100.00
35655;BME280;21773;50.010;19.972;2024-03-02T05:38:09;98127.13;;;10.31;100.00
35655;BME280;21773;50.010;19.972;2024-03-02T05:41:14;98138.38;;;10.40;100.00
35655;BME280;21773;50.010;19.972;2024-03-02T05:44:17;98134.47;;;10.48;100.00
35655;BME280;21773;50.010;19.972;2024-03-02T05:47:21;98133.28;;;10.55;100.00
35655;BME280;21773;50.010;19.972;2024-03-02T05:50:24;98123.66;;;10.59;100.00
35655;BME280;21773;50.010;19.972;2024-03-02T05:53:27;98128.31;;;10.64;100.00
35655;BME280;21773;50.010;19.972;2024-03-02T05:56:32;98126.69;;;10.63;100.00
35655;BME280;21773;50.010;19.972;2024-03-02T05:59:35;98123.50;;;10.66;100.00
35655;BME280;21773;50.010;19.972;2024-03-02T06:02:39;98133.31;;;10.72;100.00
35655;BME280;21773;50.010;19.972;2024-03-02T06:05:42;98138.59;;;10.78;100.00
35655;BME280;21773;50.010;19.972;2024-03-02T06:08:45;98139.97;;;10.81;100.00
35655;BME280;21773;50.010;19.972;2024-03-02T06:11:49;98138.31;;;10.80;100.00
35655;BME280;21773;50.010;19.972;2024-03-02T06:14:53;98145.34;;;10.81;100.00
35655;BME280;21773;50.010;19.972;2024-03-02T06:17:57;98153.31;;;10.88;100.00
35655;BME280;21773;50.010;19.972;2024-03-02T06:21:01;98149.97;;;10.97;100.00
35655;BME280;21773;50.010;19.972;2024-03-02T06:24:05;98154.25;;;11.10;100.00
35655;BME280;21773;50.010;19.972;2024-03-02T06:27:10;98153.59;;;11.19;100.00
35655;BME280;21773;50.010;19.972;2024-03-02T06:30:13;98152.16;;;11.28;100.00
35655;BME280;21773;50.010;19.972;2024-03-02T06:33:16;98153.31;;;11.33;100.00
35655;BME280;21773;50.010;19.972;2024-03-02T06:36:19;98148.91;;;11.43;100.00
35655;BME280;21773;50.010;19.972;2024-03-02T06:39:23;98141.38;;;11.45;100.00
35655;BME280;21773;50.010;19.972;2024-03-02T06:42:27;98148.16;;;11.48;100.00
35655;BME280;21773;50.010;19.972;2024-03-02T06:45:35;98149.53;;;11.50;100.00
35655;BME280;21773;50.010;19.972;2024-03-02T06:48:38;98157.00;;;11.60;100.00
35655;BME280;21773;50.010;19.972;2024-03-02T06:51:41;98156.16;;;11.59;100.00
35655;BME280;21773;50.010;19.972;2024-03-02T06:54:45;98148.66;;;11.61;100.00
35655;BME280;21773;50.010;19.972;2024-03-02T06:57:49;98149.75;;;11.77;100.00
35655;BME280;21773;50.010;19.972;2024-03-02T07:00:53;98164.53;;;11.91;100.00
35655;BME280;21773;50.010;19.972;2024-03-02T07:03:56;98153.22;;;11.94;100.00
35655;BME280;21773;50.010;19.972;2024-03-02T07:07:00;98156.25;;;11.98;100.00
35655;BME280;21773;50.010;19.972;2024-03-02T07:10:04;98156.38;;;12.08;100.00
35655;BME280;21773;50.010;19.972;2024-03-02T07:13:10;98162.75;;;12.19;100.00
35655;BME280;21773;50.010;19.972;2024-03-02T07:16:14;98176.56;;;12.22;100.00
35655;BME280;21773;50.010;19.972;2024-03-02T07:19:31;98174.69;;;12.23;100.00
35655;BME280;21773;50.010;19.972;2024-03-02T07:22:34;98174.44;;;12.24;100.00
35655;BME280;21773;50.010;19.972;2024-03-02T07:25:42;98169.78;;;12.20;100.00
35655;BME280;21773;50.010;19.972;2024-03-02T07:28:49;98170.09;;;12.23;100.00
35655;BME280;21773;50.010;19.972;2024-03-02T07:31:53;98180.00;;;12.34;100.00
35655;BME280;21773;50.010;19.972;2024-03-02T07:34:56;98175.78;;;12.43;100.00
35655;BME280;21773;50.010;19.972;2024-03-02T07:38:00;98175.09;;;12.53;100.00
35655;BME280;21773;50.010;19.972;2024-03-02T07:41:03;98180.00;;;12.56;100.00
35655;BME280;21773;50.010;19.972;2024-03-02T07:44:08;98172.19;;;12.38;100.00
35655;BME280;21773;50.010;19.972;2024-03-02T07:47:13;98183.22;;;12.53;100.00
35655;BME280;21773;50.010;19.972;2024-03-02T07:50:16;98185.38;;;12.51;100.00
35655;BME280;21773;50.010;19.972;2024-03-02T07:53:19;98185.78;;;12.43;100.00
35655;BME280;21773;50.010;19.972;2024-03-02T07:56:22;98183.38;;;12.46;100.00
35655;BME280;21773;50.010;19.972;2024-03-02T07:59:27;98188.84;;;12.51;100.00
35655;BME280;21773;50.010;19.972;2024-03-02T08:02:30;98195.16;;;12.57;100.00
35655;BME280;21773;50.010;19.972;2024-03-02T08:05:33;98190.75;;;12.73;100.00
35655;BME280;21773;50.010;19.972;2024-03-02T08:08:36;98190.88;;;12.83;100.00
35655;BME280;21773;50.010;19.972;2024-03-02T08:11:39;98184.19;;;12.90;100.00
35655;BME280;21773;50.010;19.972;2024-03-02T08:14:44;98184.31;;;13.00;100.00
35655;BME280;21773;50.010;19.972;2024-03-02T08:17:47;98179.84;;;13.11;100.00
35655;BME280;21773;50.010;19.972;2024-03-02T08:20:51;98191.06;;;13.25;100.00
35655;BME280;21773;50.010;19.972;2024-03-02T08:23:55;98186.84;;;13.34;100.00
35655;BME280;21773;50.010;19.972;2024-03-02T08:26:58;98187.25;;;13.21;100.00
35655;BME280;21773;50.010;19.972;2024-03-02T08:30:04;98189.81;;;13.11;100.00
35655;BME280;21773;50.010;19.972;2024-03-02T08:33:09;98198.97;;;13.05;100.00
35655;BME280;21773;50.010;19.972;2024-03-02T08:36:12;98196.53;;;13.03;100.00
35655;BME280;21773;50.010;19.972;2024-03-02T08:39:15;98200.09;;;13.09;100.00
35655;BME280;21773;50.010;19.972;2024-03-02T08:42:18;98211.06;;;13.19;100.00
35655;BME280;21773;50.010;19.972;2024-03-02T08:45:23;98210.66;;;13.32;100.00
35655;BME280;21773;50.010;19.972;2024-03-02T08:48:26;98212.28;;;13.33;100.00
35655;BME280;21773;50.010;19.972;2024-03-02T08:51:30;98216.94;;;13.37;100.00
35655;BME280;21773;50.010;19.972;2024-03-02T08:54:33;98215.25;;;13.31;100.00
35655;BME280;21773;50.010;19.972;2024-03-02T08:57:38;98212.28;;;13.33;100.00
35655;BME280;21773;50.010;19.972;2024-03-02T09:00:42;98209.16;;;13.46;100.00
35655;BME280;21773;50.010;19.972;2024-03-02T09:03:46;98207.63;;;13.55;100.00
35655;BME280;21773;50.010;19.972;2024-03-02T09:06:51;98216.47;;;13.45;100.00
35655;BME280;21773;50.010;19.972;2024-03-02T09:09:54;98216.94;;;13.37;100.00
35655;BME280;21773;50.010;19.972;2024-03-02T09:12:58;98222.72;;;13.19;100.00
35655;BME280;21773;50.010;19.972;2024-03-02T09:16:03;98222.44;;;13.21;100.00
35655;BME280;21773;50.010;19.972;2024-03-02T09:19:07;98222.59;;;13.36;100.00
35655;BME280;21773;50.010;19.972;2024-03-02T09:22:11;98221.88;;;13.45;100.00
35655;BME280;21773;50.010;19.972;2024-03-02T09:25:15;98232.50;;;13.52;100.00
35655;BME280;21773;50.010;19.972;2024-03-02T09:28:18;98240.97;;;13.61;100.00
35655;BME280;21773;50.010;19.972;2024-03-02T09:31:24;98246.66;;;13.59;100.00
35655;BME280;21773;50.010;19.972;2024-03-02T09:34:27;98239.38;;;13.65;100.00
35655;BME280;21773;50.010;19.972;2024-03-02T09:37:30;98238.66;;;13.74;100.00
35655;BME280;21773;50.010;19.972;2024-03-02T09:40:33;98234.09;;;13.80;100.00
35655;BME280;21773;50.010;19.972;2024-03-02T09:43:36;98252.38;;;13.95;100.00
35655;BME280;21773;50.010;19.972;2024-03-02T09:46:42;98253.09;;;14.12;100.00
35655;BME280;21773;50.010;19.972;2024-03-02T09:49:46;98241.63;;;14.05;100.00
35655;BME280;21773;50.010;19.972;2024-03-02T09:52:49;98256.41;;;14.24;100.00
35655;BME280;21773;50.010;19.972;2024-03-02T09:55:52;98234.41;;;14.15;100.00
35655;BME280;21773;50.010;19.972;2024-03-02T09:58:55;98257.00;;;14.31;100.00
35655;BME280;21773;50.010;19.972;2024-03-02T10:02:01;98260.78;;;14.30;100.00
35655;BME280;21773;50.010;19.972;2024-03-02T10:05:05;98260.78;;;14.30;100.00
35655;BME280;21773;50.010;19.972;2024-03-02T10:08:08;98208.06;;;14.11;100.00
35655;BME280;21773;50.010;19.972;2024-03-02T10:11:25;98255.56;;;14.55;100.00
35655;BME280;21773;50.010;19.972;2024-03-02T10:14:29;98247.50;;;14.65;100.00
35655;BME280;21773;50.010;19.972;2024-03-02T10:17:34;98249.25;;;14.45;100.00
35655;BME280;21773;50.010;19.972;2024-03-02T10:20:37;98260.34;;;14.43;100.00
35655;BME280;21773;50.010;19.972;2024-03-02T10:23:41;98254.66;;;14.40;100.00
35655;BME280;21773;50.010;19.972;2024-03-02T10:26:44;98239.63;;;14.32;100.00
35655;BME280;21773;50.010;19.972;2024-03-02T10:29:47;98240.53;;;14.38;100.00
35655;BME280;21773;50.010;19.972;2024-03-02T10:32:53;98246.34;;;14.61;100.00
35655;BME280;21773;50.010;19.972;2024-03-02T10:35:56;98239.69;;;14.79;100.00
35655;BME280;21773;50.010;19.972;2024-03-02T10:39:01;98224.69;;;14.71;100.00
35655;BME280;21773;50.010;19.972;2024-03-02T10:42:06;98232.91;;;14.87;100.00
35655;BME280;21773;50.010;19.972;2024-03-02T10:45:09;98236.03;;;15.21;100.00
35655;BME280;21773;50.010;19.972;2024-03-02T10:48:14;98232.09;;;15.58;100.00
35655;BME280;21773;50.010;19.972;2024-03-02T10:51:18;98236.69;;;16.09;100.00
35655;BME280;21773;50.010;19.972;2024-03-02T10:54:21;98231.75;;;16.56;100.00
35655;BME280;21773;50.010;19.972;2024-03-02T10:57:33;98228.00;;;17.16;100.00
35655;BME280;21773;50.010;19.972;2024-03-02T11:00:43;98225.88;;;17.52;100.00
35655;BME280;21773;50.010;19.972;2024-03-02T11:03:49;98229.28;;;17.78;100.00
35655;BME280;21773;50.010;19.972;2024-03-02T11:06:58;98226.66;;;18.02;100.00
35655;BME280;21773;50.010;19.972;2024-03-02T11:10:03;98211.19;;;18.21;100.00
35655;BME280;21773;50.010;19.972;2024-03-02T11:13:11;98223.66;;;18.61;100.00
35655;BME280;21773;50.010;19.972;2024-03-02T11:16:21;98228.16;;;18.94;100.00
35655;BME280;21773;50.010;19.972;2024-03-02T11:19:30;98224.38;;;19.14;100.00
35655;BME280;21773;50.010;19.972;2024-03-02T11:22:35;98228.78;;;18.86;100.00
35655;BME280;21773;50.010;19.972;2024-03-02T11:25:38;98230.00;;;18.51;100.00
35655;BME280;21773;50.010;19.972;2024-03-02T11:28:41;98218.25;;;18.51;100.00
35655;BME280;21773;50.010;19.972;2024-03-02T11:31:57;98219.19;;;18.41;100.00
35655;BME280;21773;50.010;19.972;2024-03-02T11:35:03;98215.72;;;18.31;100.00
35655;BME280;21773;50.010;19.972;2024-03-02T11:38:06;98211.69;;;18.23;100.00
35655;BME280;21773;50.010;19.972;2024-03-02T11:41:10;98211.50;;;18.14;100.00
35655;BME280;21773;50.010;19.972;2024-03-02T11:44:14;98201.22;;;18.06;100.00
35655;BME280;21773;50.010;19.972;2024-03-02T11:47:18;98209.41;;;18.06;100.00
35655;BME280;21773;50.010;19.972;2024-03-02T11:50:30;98207.31;;;17.98;100.00
35655;BME280;21773;50.010;19.972;2024-03-02T11:53:38;98178.91;;;17.70;100.00
35655;BME280;21773;50.010;19.972;2024-03-02T11:56:45;98203.50;;;17.94;100.00
35655;BME280;21773;50.010;19.972;2024-03-02T11:59:48;98207.34;;;17.93;100.00
35655;BME280;21773;50.010;19.972;2024-03-02T12:03:00;98201.91;;;17.93;100.00
35655;BME280;21773;50.010;19.972;2024-03-02T12:06:05;98202.25;;;17.82;100.00
35655;BME280;21773;50.010;19.972;2024-03-02T12:09:09;98212.78;;;17.59;100.00
35655;BME280;21773;50.010;19.972;2024-03-02T12:12:14;98208.72;;;17.52;100.00
35655;BME280;21773;50.010;19.972;2024-03-02T12:15:23;98212.84;;;17.49;100.00
35655;BME280;21773;50.010;19.972;2024-03-02T12:18:26;98217.75;;;17.47;100.00
35655;BME280;21773;50.010;19.972;2024-03-02T12:21:30;98214.94;;;17.13;100.00
35655;BME280;21773;50.010;19.972;2024-03-02T12:24:34;98210.31;;;17.14;100.00
35655;BME280;21773;50.010;19.972;2024-03-02T12:27:38;98212.50;;;17.12;100.00
35655;BME280;21773;50.010;19.972;2024-03-02T12:30:42;98215.16;;;17.22;100.00
35655;BME280;21773;50.010;19.972;2024-03-02T12:33:46;98208.09;;;17.21;100.00
35655;BME280;21773;50.010;19.972;2024-03-02T12:36:50;98202.66;;;17.16;100.00
35655;BME280;21773;50.010;19.972;2024-03-02T12:39:55;98207.88;;;17.07;100.00
35655;BME280;21773;50.010;19.972;2024-03-02T12:42:58;98200.66;;;17.31;100.00
35655;BME280;21773;50.010;19.972;2024-03-02T12:46:01;98198.97;;;17.85;100.00
35655;BME280;21773;50.010;19.972;2024-03-02T12:49:08;98191.78;;;18.51;100.00
35655;BME280;21773;50.010;19.972;2024-03-02T12:52:14;98190.16;;;19.17;100.00
35655;BME280;21773;50.010;19.972;2024-03-02T12:55:20;98198.84;;;19.61;100.00
35655;BME280;21773;50.010;19.972;2024-03-02T12:58:23;98194.72;;;19.96;100.00
35655;BME280;21773;50.010;19.972;2024-03-02T13:01:28;98211.19;;;20.10;100.00
35655;BME280;21773;50.010;19.972;2024-03-02T13:04:31;98192.88;;;20.24;100.00
35655;BME280;21773;50.010;19.972;2024-03-02T13:07:36;98198.00;;;20.44;100.00
35655;BME280;21773;50.010;19.972;2024-03-02T13:10:39;98199.25;;;20.52;100.00
35655;BME280;21773;50.010;19.972;2024-03-02T13:13:43;98180.78;;;20.44;100.00
35655;BME280;21773;50.010;19.972;2024-03-02T13:16:46;98193.34;;;20.45;100.00
35655;BME280;21773;50.010;19.972;2024-03-02T13:19:53;98180.03;;;20.38;100.00
35655;BME280;21773;50.010;19.972;2024-03-02T13:22:57;98189.50;;;20.32;100.00
35655;BME280;21773;50.010;19.972;2024-03-02T13:26:01;98195.94;;;20.22;100.00
35655;BME280;21773;50.010;19.972;2024-03-02T13:29:04;98185.06;;;20.17;100.00
35655;BME280;21773;50.010;19.972;2024-03-02T13:32:07;98184.53;;;20.15;100.00
35655;BME280;21773;50.010;19.972;2024-03-02T13:35:11;98186.78;;;20.13;100.00
35655;BME280;21773;50.010;19.972;2024-03-02T13:38:16;98186.34;;;20.06;100.00
35655;BME280;21773;50.010;19.972;2024-03-02T13:41:19;98182.97;;;19.96;100.00
35655;BME280;21773;50.010;19.972;2024-03-02T13:44:23;98191.75;;;19.79;100.00
35655;BME280;21773;50.010;19.972;2024-03-02T13:47:26;98185.53;;;19.73;100.00
35655;BME280;21773;50.010;19.972;2024-03-02T13:57:52;98166.59;;;19.44;100.00
35655;BME280;21773;50.010;19.972;2024-03-02T14:00:56;98150.81;;;19.36;100.00
35655;BME280;21773;50.010;19.972;2024-03-02T14:04:00;98160.72;;;19.51;100.00
35655;BME280;21773;50.010;19.972;2024-03-02T14:07:05;98183.88;;;19.59;100.00
35655;BME280;21773;50.010;19.972;2024-03-02T14:10:09;98040.66;;;18.42;100.00
35655;BME280;21773;50.010;19.972;2024-03-02T14:13:14;98183.25;;;19.43;100.00
35655;BME280;21773;50.010;19.972;2024-03-02T14:16:18;98177.84;;;19.38;100.00
35655;BME280;21773;50.010;19.972;2024-03-02T14:19:22;98046.91;;;18.24;100.00
35655;BME280;21773;50.010;19.972;2024-03-02T14:22:30;98052.53;;;18.33;100.00
35655;BME280;21773;50.010;19.972;2024-03-02T14:25:35;98120.19;;;18.59;100.00
35655;BME280;21773;50.010;19.972;2024-03-02T14:28:40;98025.38;;;17.75;100.00
35655;BME280;21773;50.010;19.972;2024-03-02T14:31:52;98043.97;;;17.97;100.00
35655;BME280;21773;50.010;19.972;2024-03-02T14:34:55;98185.97;;;18.82;100.00
35655;BME280;21773;50.010;19.972;2024-03-02T14:37:59;98168.50;;;18.59;100.00
35655;BME280;21773;50.010;19.972;2024-03-02T14:41:02;98179.72;;;18.57;100.00
35655;BME280;21773;50.010;19.972;2024-03-02T14:44:07;98191.69;;;18.62;100.00
35655;BME280;21773;50.010;19.972;2024-03-02T14:47:11;97960.41;;;17.01;100.00
35655;BME280;21773;50.010;19.972;2024-03-02T15:01:37;98162.28;;;18.01;100.00
35655;BME280;21773;50.010;19.972;2024-03-02T15:04:41;98167.47;;;18.02;100.00
35655;BME280;21773;50.010;19.972;2024-03-02T15:07:45;98168.78;;;18.05;100.00
35655;BME280;21773;50.010;19.972;2024-03-02T15:10:48;98161.41;;;18.05;100.00
35655;BME280;21773;50.010;19.972;2024-03-02T15:13:51;98162.00;;;18.02;100.00
35655;BME280;21773;50.010;19.972;2024-03-02T15:16:56;98163.59;;;18.03;100.00
35655;BME280;21773;50.010;19.972;2024-03-02T15:19:59;98162.31;;;17.96;100.00
35655;BME280;21773;50.010;19.972;2024-03-02T15:23:03;98165.41;;;17.84;100.00
35655;BME280;21773;50.010;19.972;2024-03-02T15:26:06;98161.69;;;17.75;100.00
35655;BME280;21773;50.010;19.972;2024-03-02T15:29:11;98162.59;;;17.65;100.00
35655;BME280;21773;50.010;19.972;2024-03-02T15:32:15;98163.16;;;17.57;100.00
35655;BME280;21773;50.010;19.972;2024-03-02T15:35:18;98164.28;;;17.51;100.00
35655;BME280;21773;50.010;19.972;2024-03-02T15:38:21;98157.53;;;17.49;100.00
35655;BME280;21773;50.010;19.972;2024-03-02T15:41:35;98154.00;;;17.43;100.00
35655;BME280;21773;50.010;19.972;2024-03-02T15:44:38;98163.00;;;17.44;100.00
35655;BME280;21773;50.010;19.972;2024-03-02T15:47:45;98158.69;;;17.38;100.00
35655;BME280;21773;50.010;19.972;2024-03-02T15:50:48;98153.25;;;17.32;100.00
35655;BME280;21773;50.010;19.972;2024-03-02T15:53:52;98149.75;;;17.27;100.00
35655;BME280;21773;50.010;19.972;2024-03-02T15:56:56;98153.09;;;17.19;100.00
35655;BME280;21773;50.010;19.972;2024-03-02T15:59:59;98147.13;;;17.12;100.00
35655;BME280;21773;50.010;19.972;2024-03-02T16:03:13;98153.44;;;17.02;100.00
35655;BME280;21773;50.010;19.972;2024-03-02T16:06:16;98156.22;;;16.92;100.00
35655;BME280;21773;50.010;19.972;2024-03-02T16:09:19;98144.03;;;16.84;100.00
35655;BME280;21773;50.010;19.972;2024-03-02T16:12:22;98153.56;;;16.77;100.00